createdAt,value
2019-05-30T00:00:35.629Z,7.90
2019-05-30T00:03:02.313Z,7.80
2019-05-30T00:05:28.807Z,7.70
2019-05-30T00:07:56.062Z,7.60
2019-05-30T00:10:22.744Z,7.60
2019-05-30T00:12:49.083Z,7.50
2019-05-30T00:15:15.624Z,7.50
2019-05-30T00:17:41.812Z,7.50
2019-05-30T00:20:08.538Z,7.60
2019-05-30T00:22:34.759Z,7.70
2019-05-30T00:25:02.449Z,7.60
2019-05-30T00:27:28.909Z,7.70
2019-05-30T00:29:55.190Z,7.60
2019-05-30T00:32:21.634Z,7.60
2019-05-30T00:34:48.334Z,7.40
2019-05-30T00:37:14.786Z,7.40
2019-05-30T00:39:41.162Z,7.40
2019-05-30T00:42:07.414Z,7.50
2019-05-30T00:44:33.774Z,7.50
2019-05-30T00:47:00.634Z,7.50
2019-05-30T00:49:27.094Z,7.40
2019-05-30T00:51:53.346Z,7.40
2019-05-30T00:54:19.538Z,7.60
2019-05-30T00:56:46.001Z,7.50
2019-05-30T00:59:12.288Z,7.70
2019-05-30T01:01:38.552Z,7.70
2019-05-30T01:04:05.016Z,7.50
2019-05-30T01:06:31.428Z,7.30
2019-05-30T01:08:58.983Z,7.20
2019-05-30T01:11:25.393Z,7.00
2019-05-30T01:13:51.838Z,7.00
2019-05-30T01:16:18.148Z,6.80
2019-05-30T01:18:44.766Z,6.70
2019-05-30T01:21:11.093Z,6.70
2019-05-30T01:23:39.388Z,6.60
2019-05-30T01:26:05.755Z,6.60
2019-05-30T01:28:32.128Z,6.60
2019-05-30T01:31:03.090Z,6.60
2019-05-30T01:33:26.623Z,6.80
2019-05-30T01:35:53.056Z,6.80
2019-05-30T01:38:19.335Z,6.80
2019-05-30T01:40:45.678Z,6.70
2019-05-30T01:43:11.917Z,6.60
2019-05-30T01:45:38.201Z,6.50
2019-05-30T01:48:04.742Z,6.70
2019-05-30T01:50:31.052Z,6.60
2019-05-30T01:52:58.369Z,6.60
2019-05-30T01:55:24.899Z,6.50
2019-05-30T01:57:51.191Z,6.50
2019-05-30T02:00:21.307Z,6.50
2019-05-30T02:02:45.957Z,6.60
2019-05-30T02:05:13.281Z,6.60
2019-05-30T02:07:39.575Z,6.70
2019-05-30T02:10:07.399Z,6.50
2019-05-30T02:12:33.921Z,6.40
2019-05-30T02:15:01.442Z,6.40
2019-05-30T02:17:28.111Z,6.40
2019-05-30T02:19:54.479Z,6.50
2019-05-30T02:22:20.849Z,6.60
2019-05-30T02:24:47.105Z,6.70
2019-05-30T02:27:13.315Z,6.70
2019-05-30T02:29:39.521Z,6.70
2019-05-30T02:32:07.014Z,6.90
2019-05-30T02:34:33.514Z,6.70
2019-05-30T02:37:01.219Z,6.50
2019-05-30T02:39:27.902Z,6.40
2019-05-30T02:41:54.142Z,6.30
2019-05-30T02:44:20.613Z,6.30
2019-05-30T02:46:46.860Z,6.50
2019-05-30T02:49:13.963Z,6.70
2019-05-30T02:51:40.518Z,6.70
2019-05-30T02:54:08.679Z,6.80
2019-05-30T02:56:34.967Z,6.80
2019-05-30T02:59:01.567Z,6.80
2019-05-30T03:01:28.528Z,6.70
2019-05-30T03:03:54.742Z,6.60
2019-05-30T03:06:21.395Z,6.70
2019-05-30T03:08:47.773Z,6.60
2019-05-30T03:11:15.565Z,6.40
2019-05-30T03:13:42.217Z,6.50
2019-05-30T03:16:09.274Z,6.50
2019-05-30T03:18:36.852Z,6.60
2019-05-30T03:21:03.781Z,6.70
2019-05-30T03:23:31.597Z,6.60
2019-05-30T03:25:58.414Z,6.50
2019-05-30T03:28:24.715Z,6.60
2019-05-30T03:30:51.031Z,6.70
2019-05-30T03:33:36.735Z,6.70
2019-05-30T03:35:45.727Z,6.70
2019-05-30T03:38:13.510Z,6.80
2019-05-30T03:40:40.571Z,6.70
2019-05-30T03:43:09.247Z,6.50
2019-05-30T03:45:36.718Z,6.50
2019-05-30T03:48:08.829Z,6.30
2019-05-30T03:50:36.851Z,6.10
2019-05-30T03:53:04.646Z,6.10
2019-05-30T03:55:34.832Z,5.90
2019-05-30T03:58:08.530Z,6.10
2019-05-30T04:00:54.773Z,6.20
2019-05-30T04:03:24.802Z,6.10
2019-05-30T04:05:57.558Z,6.00
2019-05-30T04:08:27.554Z,6.30
2019-05-30T04:10:56.729Z,6.50
2019-05-30T04:13:26.805Z,6.50
2019-05-30T04:15:53.643Z,6.60
2019-05-30T04:18:20.376Z,6.50
2019-05-30T04:20:46.709Z,6.40
2019-05-30T04:23:14.634Z,6.40
2019-05-30T04:25:41.128Z,6.50
2019-05-30T04:28:07.849Z,6.70
2019-05-30T04:30:34.380Z,6.80
2019-05-30T04:33:17.205Z,6.90
2019-05-30T04:35:28.752Z,7.00
2019-05-30T04:37:55.167Z,7.10
2019-05-30T04:40:21.526Z,7.10
2019-05-30T04:42:47.822Z,7.20
2019-05-30T04:45:15.961Z,7.30
2019-05-30T04:47:42.809Z,7.30
2019-05-30T04:50:10.128Z,7.40
2019-05-30T04:52:36.646Z,7.50
2019-05-30T04:55:05.693Z,7.50
2019-05-30T04:57:31.994Z,7.60
2019-05-30T04:59:58.208Z,7.70
2019-05-30T05:02:24.501Z,7.70
2019-05-30T05:04:50.895Z,7.80
2019-05-30T05:07:17.819Z,7.90
2019-05-30T05:09:44.305Z,7.90
2019-05-30T05:12:11.903Z,7.80
2019-05-30T05:14:38.342Z,7.90
2019-05-30T05:17:04.618Z,7.80
2019-05-30T05:19:30.912Z,8.00
2019-05-30T05:21:57.229Z,8.10
2019-05-30T05:24:23.911Z,8.30
2019-05-30T05:26:50.148Z,8.40
2019-05-30T05:29:16.365Z,8.60
2019-05-30T05:31:42.678Z,8.70
2019-05-30T05:34:09.018Z,8.60
2019-05-30T05:36:35.323Z,8.60
2019-05-30T05:39:01.640Z,8.80
2019-05-30T05:41:28.661Z,8.80
2019-05-30T05:43:55.131Z,8.90
2019-05-30T05:46:22.540Z,8.90
2019-05-30T05:48:48.840Z,9.00
2019-05-30T05:51:16.319Z,9.30
2019-05-30T05:53:42.783Z,9.40
2019-05-30T05:56:09.010Z,9.60
2019-05-30T05:58:35.323Z,9.60
2019-05-30T06:01:01.798Z,9.80
2019-05-30T06:03:28.355Z,10.10
2019-05-30T06:05:54.666Z,10.20
2019-05-30T06:08:21.449Z,10.30
2019-05-30T06:10:47.936Z,10.40
2019-05-30T06:13:14.288Z,10.60
2019-05-30T06:15:40.796Z,10.70
2019-05-30T06:18:07.173Z,10.80
2019-05-30T06:20:33.517Z,10.80
2019-05-30T06:22:59.696Z,10.90
2019-05-30T06:25:30.381Z,11.10
2019-05-30T06:27:54.244Z,11.20
2019-05-30T06:30:20.796Z,11.30
2019-05-30T06:32:47.001Z,11.30
2019-05-30T06:35:13.624Z,11.40
2019-05-30T06:37:39.970Z,11.70
2019-05-30T06:40:06.905Z,11.80
2019-05-30T06:42:34.612Z,11.90
2019-05-30T06:45:00.875Z,11.90
2019-05-30T06:47:28.380Z,12.20
2019-05-30T06:49:54.705Z,12.20
2019-05-30T06:52:21.079Z,12.40
2019-05-30T06:54:47.416Z,12.50
2019-05-30T06:57:13.571Z,12.60
2019-05-30T06:59:40.258Z,12.70
2019-05-30T07:02:06.978Z,12.90
2019-05-30T07:04:50.368Z,13.10
2019-05-30T07:07:01.596Z,13.30
2019-05-30T07:09:29.160Z,13.20
2019-05-30T07:11:55.520Z,13.50
2019-05-30T07:14:22.961Z,13.60
2019-05-30T07:16:49.578Z,13.90
2019-05-30T07:19:15.842Z,14.00
2019-05-30T07:21:42.145Z,14.10
2019-05-30T07:24:08.555Z,14.30
2019-05-30T07:26:34.977Z,14.40
2019-05-30T07:29:01.379Z,14.80
2019-05-30T07:31:28.053Z,15.00
2019-05-30T07:33:54.447Z,15.20
2019-05-30T07:36:20.805Z,15.20
2019-05-30T07:38:47.129Z,15.30
2019-05-30T07:41:13.458Z,15.40
2019-05-30T07:43:39.613Z,15.40
2019-05-30T07:46:06.097Z,15.50
2019-05-30T07:48:32.480Z,15.60
2019-05-30T07:50:58.782Z,15.70
2019-05-30T07:53:25.068Z,15.80
2019-05-30T07:55:51.330Z,16.00
2019-05-30T07:58:17.725Z,16.20
2019-05-30T08:00:44.130Z,16.20
2019-05-30T08:03:10.588Z,16.00
2019-05-30T08:05:36.893Z,15.90
2019-05-30T08:08:03.506Z,16.10
2019-05-30T08:10:29.941Z,16.20
2019-05-30T08:12:56.330Z,16.20
2019-05-30T08:15:22.942Z,16.40
2019-05-30T08:17:49.225Z,16.40
2019-05-30T08:20:16.002Z,16.30
2019-05-30T08:22:42.374Z,16.40
2019-05-30T08:25:09.062Z,16.60
2019-05-30T08:27:36.441Z,16.70
2019-05-30T08:30:08.368Z,16.80
2019-05-30T08:32:34.763Z,16.90
2019-05-30T08:35:01.264Z,17.00
2019-05-30T08:37:28.811Z,17.00
2019-05-30T08:39:55.445Z,17.20
2019-05-30T08:42:21.800Z,17.40
2019-05-30T08:44:47.987Z,17.50
2019-05-30T08:47:14.431Z,17.50
2019-05-30T08:49:40.889Z,17.20
2019-05-30T08:52:07.405Z,17.10
2019-05-30T08:54:34.385Z,17.30
2019-05-30T08:57:01.040Z,17.50
2019-05-30T08:59:27.725Z,17.60
2019-05-30T09:01:54.472Z,17.30
2019-05-30T09:04:20.712Z,17.50
2019-05-30T09:06:48.170Z,17.50
2019-05-30T09:09:15.790Z,17.70
2019-05-30T09:11:44.445Z,17.50
2019-05-30T09:14:13.418Z,17.70
2019-05-30T09:16:44.688Z,17.80
2019-05-30T09:19:20.558Z,18.00
2019-05-30T09:21:50.114Z,18.20
2019-05-30T09:24:19.100Z,18.20
2019-05-30T09:26:49.872Z,18.20
2019-05-30T09:29:15.599Z,18.30
2019-05-30T09:31:48.609Z,18.50
2019-05-30T09:34:15.271Z,18.70
2019-05-30T09:36:52.598Z,18.70
2019-05-30T09:39:19.025Z,18.80
2019-05-30T09:41:48.230Z,19.10
2019-05-30T09:44:15.246Z,19.30
2019-05-30T09:46:44.250Z,19.30
2019-05-30T09:49:13.539Z,19.40
2019-05-30T09:51:42.538Z,19.50
2019-05-30T09:54:10.668Z,19.60
2019-05-30T09:56:40.637Z,19.70
2019-05-30T09:59:11.054Z,19.80
2019-05-30T10:01:42.570Z,19.80
2019-05-30T10:04:09.906Z,19.80
2019-05-30T10:06:39.138Z,20.00
2019-05-30T10:09:10.379Z,19.90
2019-05-30T10:11:39.422Z,19.90
2019-05-30T10:14:07.334Z,20.20
2019-05-30T10:16:34.586Z,19.90
2019-05-30T10:19:03.515Z,20.10
2019-05-30T10:21:33.809Z,20.30
2019-05-30T10:24:04.375Z,20.40
2019-05-30T10:26:31.701Z,20.00
2019-05-30T10:29:03.544Z,20.30
2019-05-30T10:31:32.522Z,20.60
2019-05-30T10:34:04.139Z,20.70
2019-05-30T10:36:43.792Z,20.50
2019-05-30T10:39:08.840Z,20.50
2019-05-30T10:41:38.191Z,20.20
2019-05-30T10:44:10.351Z,20.30
2019-05-30T10:46:47.033Z,20.40
2019-05-30T10:49:16.445Z,20.50
2019-05-30T10:51:51.605Z,20.40
2019-05-30T10:54:21.871Z,20.50
2019-05-30T10:56:53.808Z,20.70
2019-05-30T10:59:22.559Z,20.80
2019-05-30T11:01:52.864Z,20.90
2019-05-30T11:04:25.289Z,20.80
2019-05-30T11:07:12.001Z,20.80
2019-05-30T11:09:42.847Z,21.00
2019-05-30T11:12:11.891Z,21.10
2019-05-30T11:14:43.605Z,20.90
2019-05-30T11:17:09.866Z,21.10
2019-05-30T11:19:36.155Z,21.30
2019-05-30T11:22:02.814Z,21.30
2019-05-30T11:24:29.040Z,21.00
2019-05-30T11:26:55.969Z,21.10
2019-05-30T11:29:23.358Z,21.30
2019-05-30T11:31:50.699Z,21.30
2019-05-30T11:34:17.300Z,21.30
2019-05-30T11:36:43.710Z,21.30
2019-05-30T11:39:10.167Z,21.40
2019-05-30T11:41:36.579Z,21.60
2019-05-30T11:44:04.168Z,21.40
2019-05-30T11:46:30.672Z,21.50
2019-05-30T11:48:57.872Z,21.30
2019-05-30T11:51:24.410Z,21.40
2019-05-30T11:53:51.724Z,21.70
2019-05-30T11:56:18.107Z,21.80
2019-05-30T11:58:44.456Z,21.90
2019-05-30T12:01:10.835Z,21.50
2019-05-30T12:03:37.167Z,21.40
2019-05-30T12:06:03.634Z,21.30
2019-05-30T12:08:30.281Z,21.20
2019-05-30T12:10:57.247Z,21.60
2019-05-30T12:13:23.620Z,21.90
2019-05-30T12:15:51.256Z,22.30
2019-05-30T12:18:17.825Z,22.20
2019-05-30T12:20:44.128Z,21.80
2019-05-30T12:23:10.488Z,21.90
2019-05-30T12:25:36.787Z,22.00
2019-05-30T12:28:04.277Z,22.00
2019-05-30T12:30:31.444Z,22.10
2019-05-30T12:32:58.347Z,21.90
2019-05-30T12:35:25.116Z,21.60
2019-05-30T12:37:58.289Z,21.60
2019-05-30T12:40:21.787Z,21.70
2019-05-30T12:42:48.266Z,21.40
2019-05-30T12:45:15.630Z,21.20
2019-05-30T12:47:42.041Z,21.60
2019-05-30T12:50:09.865Z,21.40
2019-05-30T12:52:36.298Z,21.00
2019-05-30T12:55:06.848Z,21.30
2019-05-30T12:57:33.290Z,21.70
2019-05-30T13:00:00.829Z,21.40
2019-05-30T13:02:27.224Z,20.70
2019-05-30T13:04:54.717Z,20.60
2019-05-30T13:07:21.127Z,20.60
2019-05-30T13:09:47.406Z,20.90
2019-05-30T13:12:13.655Z,21.40
2019-05-30T13:14:40.043Z,22.00
2019-05-30T13:17:06.290Z,22.30
2019-05-30T13:19:32.637Z,22.50
2019-05-30T13:21:59.261Z,22.70
2019-05-30T13:24:25.558Z,22.60
2019-05-30T13:26:51.906Z,22.60
2019-05-30T13:29:18.251Z,22.80
2019-05-30T13:31:44.496Z,22.40
2019-05-30T13:34:10.799Z,22.70
2019-05-30T13:36:37.145Z,22.30
2019-05-30T13:39:05.329Z,22.20
2019-05-30T13:41:31.785Z,22.40
2019-05-30T13:43:58.119Z,22.70
2019-05-30T13:46:24.499Z,22.90
2019-05-30T13:48:50.879Z,22.90
2019-05-30T13:51:17.179Z,23.20
2019-05-30T13:53:43.539Z,23.40
2019-05-30T13:56:09.889Z,23.70
2019-05-30T13:58:36.270Z,23.40
2019-05-30T14:01:07.788Z,23.40
2019-05-30T14:03:31.032Z,23.60
2019-05-30T14:05:57.381Z,23.90
2019-05-30T14:08:23.551Z,24.10
2019-05-30T14:10:49.882Z,23.90
2019-05-30T14:13:16.258Z,23.40
2019-05-30T14:15:42.631Z,22.90
2019-05-30T14:18:09.117Z,22.60
2019-05-30T14:20:35.532Z,22.20
2019-05-30T14:23:03.207Z,22.00
2019-05-30T14:25:29.805Z,21.80
2019-05-30T14:27:56.066Z,21.50
2019-05-30T14:30:22.772Z,21.60
2019-05-30T14:32:49.012Z,21.90
2019-05-30T14:35:15.578Z,21.90
2019-05-30T14:37:42.074Z,22.10
2019-05-30T14:40:11.120Z,22.20
2019-05-30T14:42:37.611Z,22.40
2019-05-30T14:45:08.427Z,22.40
2019-05-30T14:47:34.853Z,22.60
2019-05-30T14:50:01.333Z,22.90
2019-05-30T14:52:27.751Z,22.60
2019-05-30T14:54:54.036Z,22.40
2019-05-30T14:57:20.445Z,22.30
2019-05-30T14:59:46.815Z,21.90
2019-05-30T15:02:13.370Z,22.00
2019-05-30T15:04:39.733Z,22.10
2019-05-30T15:07:07.328Z,22.20
2019-05-30T15:09:33.763Z,22.20
2019-05-30T15:11:59.975Z,22.20
2019-05-30T15:14:26.244Z,22.10
2019-05-30T15:16:52.502Z,22.00
2019-05-30T15:19:18.790Z,21.70
2019-05-30T15:21:45.040Z,21.80
2019-05-30T15:24:12.753Z,21.50
2019-05-30T15:26:39.488Z,21.10
2019-05-30T15:29:06.020Z,21.10
2019-05-30T15:31:32.330Z,21.10
2019-05-30T15:33:58.714Z,21.10
2019-05-30T15:36:25.064Z,21.10
2019-05-30T15:38:51.276Z,21.10
2019-05-30T15:41:17.579Z,20.90
2019-05-30T15:43:43.986Z,20.90
2019-05-30T15:46:10.246Z,20.80
2019-05-30T15:48:36.652Z,20.60
2019-05-30T15:51:03.285Z,20.50
2019-05-30T15:53:29.705Z,20.50
2019-05-30T15:55:56.022Z,20.50
2019-05-30T15:58:22.228Z,20.50
2019-05-30T16:00:48.524Z,20.50
2019-05-30T16:03:14.768Z,20.50
2019-05-30T16:05:41.028Z,20.60
2019-05-30T16:08:07.513Z,20.70
2019-05-30T16:10:36.620Z,20.90
2019-05-30T16:13:02.240Z,21.00
2019-05-30T16:15:28.944Z,21.00
2019-05-30T16:17:55.334Z,21.10
2019-05-30T16:20:22.072Z,21.00
2019-05-30T16:22:48.521Z,20.90
2019-05-30T16:25:15.708Z,20.90
2019-05-30T16:27:42.139Z,20.90
2019-05-30T16:30:10.267Z,20.80
2019-05-30T16:32:36.856Z,20.80
2019-05-30T16:35:04.926Z,20.80
2019-05-30T16:37:31.321Z,20.80
2019-05-30T16:40:05.973Z,20.80
2019-05-30T16:42:26.537Z,20.80
2019-05-30T16:44:52.772Z,20.70
2019-05-30T16:47:19.032Z,20.80
2019-05-30T16:49:45.258Z,20.70
2019-05-30T16:52:11.419Z,20.80
2019-05-30T16:54:37.831Z,20.80
2019-05-30T16:57:04.177Z,20.70
2019-05-30T16:59:30.585Z,20.50
2019-05-30T17:01:58.483Z,20.40
2019-05-30T17:04:25.037Z,20.20
2019-05-30T17:06:51.309Z,20.10
2019-05-30T17:09:17.620Z,20.00
2019-05-30T17:11:43.983Z,19.90
2019-05-30T17:14:10.393Z,19.80
2019-05-30T17:16:36.773Z,19.70
2019-05-30T17:19:03.274Z,19.70
2019-05-30T17:21:29.665Z,19.70
2019-05-30T17:23:55.905Z,19.70
2019-05-30T17:26:23.243Z,19.70
2019-05-30T17:28:49.651Z,19.70
2019-05-30T17:31:16.031Z,19.70
2019-05-30T17:33:42.479Z,19.70
2019-05-30T17:36:08.930Z,19.70
2019-05-30T17:38:35.277Z,19.70
2019-05-30T17:41:01.606Z,19.70
2019-05-30T17:43:29.184Z,19.60
2019-05-30T17:45:55.671Z,19.60
2019-05-30T17:48:23.451Z,19.60
2019-05-30T17:50:52.574Z,19.50
2019-05-30T17:53:42.875Z,19.50
2019-05-30T17:56:12.040Z,19.50
2019-05-30T17:58:45.220Z,19.50
2019-05-30T18:01:14.123Z,19.50
2019-05-30T18:03:46.131Z,19.40
2019-05-30T18:06:16.772Z,19.40
2019-05-30T18:08:43.960Z,19.40
2019-05-30T18:11:12.915Z,19.30
2019-05-30T18:13:42.152Z,19.30
2019-05-30T18:16:10.174Z,19.30
2019-05-30T18:18:37.572Z,19.20
2019-05-30T18:21:09.904Z,19.20
2019-05-30T18:23:44.722Z,19.20
2019-05-30T18:26:11.038Z,19.20
2019-05-30T18:28:38.282Z,19.20
2019-05-30T18:31:09.127Z,19.10
2019-05-30T18:33:38.372Z,19.10
2019-05-30T18:36:05.453Z,19.10
2019-05-30T18:38:35.580Z,19.00
2019-05-30T18:41:11.326Z,19.00
2019-05-30T18:43:33.761Z,19.00
2019-05-30T18:46:02.643Z,19.00
2019-05-30T18:48:34.719Z,19.00
2019-05-30T18:51:01.969Z,18.90
2019-05-30T18:53:36.892Z,18.90
2019-05-30T18:56:05.955Z,18.90
2019-05-30T18:58:33.336Z,18.90
2019-05-30T19:01:05.096Z,18.80
2019-05-30T19:03:36.874Z,18.80
2019-05-30T19:06:07.393Z,18.80
2019-05-30T19:08:36.061Z,18.80
2019-05-30T19:11:05.068Z,18.70
2019-05-30T19:13:33.055Z,18.70
2019-05-30T19:16:00.609Z,18.80
2019-05-30T19:18:31.513Z,18.70
2019-05-30T19:21:00.836Z,18.70
2019-05-30T19:23:29.940Z,18.70
2019-05-30T19:25:59.264Z,18.60
2019-05-30T19:28:26.466Z,18.60
2019-05-30T19:30:55.401Z,18.50
2019-05-30T19:33:24.163Z,18.50
2019-05-30T19:35:52.953Z,18.50
2019-05-30T19:38:21.740Z,18.50
2019-05-30T19:40:49.321Z,18.50
2019-05-30T19:43:16.585Z,18.50
2019-05-30T19:45:47.120Z,18.40
2019-05-30T19:48:15.861Z,18.40
2019-05-30T19:50:45.928Z,18.40
2019-05-30T19:53:13.527Z,18.40
2019-05-30T19:55:42.333Z,18.40
2019-05-30T19:58:09.702Z,18.40
2019-05-30T20:00:54.709Z,18.30
2019-05-30T20:03:12.903Z,18.30
2019-05-30T20:05:53.898Z,18.30
2019-05-30T20:08:23.906Z,18.30
2019-05-30T20:10:54.382Z,18.30
2019-05-30T20:13:21.805Z,18.20
2019-05-30T20:15:53.753Z,18.20
2019-05-30T20:18:20.810Z,18.20
2019-05-30T20:20:56.790Z,18.10
2019-05-30T20:23:16.927Z,18.10
2019-05-30T20:25:45.856Z,18.20
2019-05-30T20:28:11.486Z,18.10
2019-05-30T20:30:39.071Z,18.10
2019-05-30T20:33:05.719Z,18.10
2019-05-30T20:35:34.314Z,18.10
2019-05-30T20:38:01.634Z,18.10
2019-05-30T20:40:28.279Z,18.10
2019-05-30T20:42:54.729Z,18.10
2019-05-30T20:45:21.205Z,18.10
2019-05-30T20:47:47.592Z,18.00
2019-05-30T20:50:16.374Z,18.00
2019-05-30T20:52:45.393Z,18.00
2019-05-30T20:55:13.227Z,18.00
2019-05-30T20:57:40.408Z,18.00
2019-05-30T21:00:07.682Z,18.00
2019-05-30T21:02:34.655Z,17.90
2019-05-30T21:05:01.110Z,17.90
2019-05-30T21:07:27.561Z,17.90
2019-05-30T21:09:54.203Z,17.90
2019-05-30T21:12:38.878Z,17.90
2019-05-30T21:14:51.773Z,17.90
2019-05-30T21:17:19.560Z,17.90
2019-05-30T21:19:46.174Z,17.90
2019-05-30T21:22:12.401Z,17.80
2019-05-30T21:24:38.807Z,17.90
2019-05-30T21:27:05.268Z,17.80
2019-05-30T21:29:31.732Z,17.70
2019-05-30T21:31:58.095Z,17.60
2019-05-30T21:34:24.481Z,17.60
2019-05-30T21:36:50.871Z,17.60
2019-05-30T21:39:17.227Z,17.50
2019-05-30T21:41:44.597Z,17.50
2019-05-30T21:44:11.136Z,17.50
2019-05-30T21:46:38.632Z,17.50
2019-05-30T21:49:04.992Z,17.50
2019-05-30T21:51:31.393Z,17.50
2019-05-30T21:53:57.754Z,17.50
2019-05-30T21:56:24.048Z,17.50
2019-05-30T21:58:50.459Z,17.50
2019-05-30T22:01:20.938Z,17.40
2019-05-30T22:03:48.802Z,17.40
2019-05-30T22:06:15.012Z,17.40
2019-05-30T22:08:41.141Z,17.30
2019-05-30T22:11:07.484Z,17.40
2019-05-30T22:13:33.752Z,17.40
2019-05-30T22:16:00.059Z,17.40
2019-05-30T22:18:26.390Z,17.30
2019-05-30T22:20:52.731Z,17.20
2019-05-30T22:23:19.067Z,17.20
2019-05-30T22:25:46.333Z,17.00
2019-05-30T22:28:12.791Z,17.00
2019-05-30T22:30:39.264Z,17.00
2019-05-30T22:33:05.518Z,17.00
2019-05-30T22:35:31.884Z,17.00
2019-05-30T22:37:58.469Z,16.90
2019-05-30T22:40:25.193Z,16.90
2019-05-30T22:42:52.262Z,16.80
2019-05-30T22:45:18.652Z,16.80
2019-05-30T22:47:46.267Z,16.80
2019-05-30T22:50:12.794Z,16.80
2019-05-30T22:52:39.190Z,16.80
2019-05-30T22:55:05.586Z,16.80
2019-05-30T22:57:31.990Z,16.80
2019-05-30T22:59:58.429Z,16.80
2019-05-30T23:02:24.859Z,16.80
2019-05-30T23:04:52.253Z,16.70
2019-05-30T23:07:18.646Z,16.70
2019-05-30T23:09:45.523Z,16.70
2019-05-30T23:12:11.946Z,16.60
2019-05-30T23:14:38.256Z,16.70
2019-05-30T23:17:04.489Z,16.70
2019-05-30T23:19:30.961Z,16.70
2019-05-30T23:21:57.393Z,16.70
2019-05-30T23:24:23.677Z,16.60
2019-05-30T23:26:49.978Z,16.60
2019-05-30T23:29:16.316Z,16.70
2019-05-30T23:31:42.713Z,16.60
2019-05-30T23:34:08.988Z,16.50
2019-05-30T23:36:35.340Z,16.40
2019-05-30T23:39:01.549Z,16.30
2019-05-30T23:41:27.835Z,16.30
2019-05-30T23:44:03.699Z,16.30
2019-05-30T23:46:22.397Z,16.30
2019-05-30T23:48:49.507Z,16.30
2019-05-30T23:51:15.977Z,16.30
2019-05-30T23:53:42.398Z,16.20
2019-05-30T23:56:08.714Z,16.10
2019-05-30T23:58:34.992Z,16.10
